sensor_id;sensor_type;location;lat;lon;timestamp;P1;durP1;ratioP1;P2;durP2;ratioP2
11018;SDS011;5563;52.296;6.806;2022-12-18T00:01:31;18.30;;;15.05;;
11018;SDS011;5563;52.296;6.806;2022-12-18T00:04:21;19.65;;;15.48;;
11018;SDS011;5563;52.296;6.806;2022-12-18T00:07:16;19.90;;;15.48;;
11018;SDS011;5563;52.296;6.806;2022-12-18T00:10:03;20.85;;;16.02;;
11018;SDS011;5563;52.296;6.806;2022-12-18T00:13:00;20.92;;;15.18;;
11018;SDS011;5563;52.296;6.806;2022-12-18T00:15:53;19.80;;;15.18;;
11018;SDS011;5563;52.296;6.806;2022-12-18T00:18:47;19.27;;;15.43;;
11018;SDS011;5563;52.296;6.806;2022-12-18T00:21:35;18.85;;;15.10;;
11018;SDS011;5563;52.296;6.806;2022-12-18T00:24:28;18.55;;;14.73;;
11018;SDS011;5563;52.296;6.806;2022-12-18T00:27:28;18.95;;;14.68;;
11018;SDS011;5563;52.296;6.806;2022-12-18T00:30:22;19.55;;;14.23;;
11018;SDS011;5563;52.296;6.806;2022-12-18T00:33:09;18.80;;;15.10;;
11018;SDS011;5563;52.296;6.806;2022-12-18T00:36:02;18.15;;;14.20;;
11018;SDS011;5563;52.296;6.806;2022-12-18T00:38:50;19.50;;;15.23;;
11018;SDS011;5563;52.296;6.806;2022-12-18T00:41:45;20.23;;;15.55;;
11018;SDS011;5563;52.296;6.806;2022-12-18T00:44:58;17.40;;;14.70;;
11018;SDS011;5563;52.296;6.806;2022-12-18T00:47:45;18.70;;;14.63;;
11018;SDS011;5563;52.296;6.806;2022-12-18T00:50:39;17.45;;;14.15;;
11018;SDS011;5563;52.296;6.806;2022-12-18T00:53:25;18.15;;;14.38;;
11018;SDS011;5563;52.296;6.806;2022-12-18T00:56:21;18.55;;;14.15;;
11018;SDS011;5563;52.296;6.806;2022-12-18T00:59:09;18.15;;;14.65;;
11018;SDS011;5563;52.296;6.806;2022-12-18T01:02:02;17.63;;;14.38;;
11018;SDS011;5563;52.296;6.806;2022-12-18T01:04:56;17.65;;;14.20;;
11018;SDS011;5563;52.296;6.806;2022-12-18T01:07:42;15.98;;;12.73;;
11018;SDS011;5563;52.296;6.806;2022-12-18T01:10:35;17.15;;;13.77;;
11018;SDS011;5563;52.296;6.806;2022-12-18T01:13:22;18.85;;;14.95;;
11018;SDS011;5563;52.296;6.806;2022-12-18T01:16:16;16.58;;;13.75;;
11018;SDS011;5563;52.296;6.806;2022-12-18T01:19:11;17.13;;;13.77;;
11018;SDS011;5563;52.296;6.806;2022-12-18T01:22:04;16.25;;;13.52;;
11018;SDS011;5563;52.296;6.806;2022-12-18T01:24:57;17.35;;;14.20;;
11018;SDS011;5563;52.296;6.806;2022-12-18T01:27:51;17.02;;;13.40;;
11018;SDS011;5563;52.296;6.806;2022-12-18T01:30:38;16.73;;;13.75;;
11018;SDS011;5563;52.296;6.806;2022-12-18T01:33:30;15.80;;;13.60;;
11018;SDS011;5563;52.296;6.806;2022-12-18T01:36:18;15.38;;;13.77;;
11018;SDS011;5563;52.296;6.806;2022-12-18T01:39:14;16.58;;;12.63;;
11018;SDS011;5563;52.296;6.806;2022-12-18T01:42:09;16.58;;;13.75;;
11018;SDS011;5563;52.296;6.806;2022-12-18T01:47:59;14.45;;;12.50;;
11018;SDS011;5563;52.296;6.806;2022-12-18T01:50:54;14.93;;;12.50;;
11018;SDS011;5563;52.296;6.806;2022-12-18T01:53:42;16.48;;;13.52;;
11018;SDS011;5563;52.296;6.806;2022-12-18T01:56:36;15.85;;;12.85;;
11018;SDS011;5563;52.296;6.806;2022-12-18T01:59:23;14.73;;;12.10;;
11018;SDS011;5563;52.296;6.806;2022-12-18T02:02:17;16.30;;;12.35;;
11018;SDS011;5563;52.296;6.806;2022-12-18T02:05:04;15.98;;;13.07;;
11018;SDS011;5563;52.296;6.806;2022-12-18T02:11:01;14.60;;;11.95;;
11018;SDS011;5563;52.296;6.806;2022-12-18T02:17:17;14.32;;;12.68;;
11018;SDS011;5563;52.296;6.806;2022-12-18T02:23:43;13.93;;;12.23;;
11018;SDS011;5563;52.296;6.806;2022-12-18T02:26:48;14.48;;;12.38;;
11018;SDS011;5563;52.296;6.806;2022-12-18T02:29:46;13.25;;;11.30;;
11018;SDS011;5563;52.296;6.806;2022-12-18T02:32:45;14.45;;;11.88;;
11018;SDS011;5563;52.296;6.806;2022-12-18T02:35:42;14.45;;;11.80;;
11018;SDS011;5563;52.296;6.806;2022-12-18T02:38:38;13.68;;;11.45;;
11018;SDS011;5563;52.296;6.806;2022-12-18T02:41:39;13.25;;;11.20;;
11018;SDS011;5563;52.296;6.806;2022-12-18T02:44:42;14.10;;;11.48;;
11018;SDS011;5563;52.296;6.806;2022-12-18T02:47:39;12.80;;;10.95;;
11018;SDS011;5563;52.296;6.806;2022-12-18T02:50:36;13.55;;;11.20;;
11018;SDS011;5563;52.296;6.806;2022-12-18T02:53:33;13.88;;;11.70;;
11018;SDS011;5563;52.296;6.806;2022-12-18T02:56:37;12.68;;;11.32;;
11018;SDS011;5563;52.296;6.806;2022-12-18T02:59:41;13.25;;;11.32;;
11018;SDS011;5563;52.296;6.806;2022-12-18T03:05:51;12.25;;;10.95;;
11018;SDS011;5563;52.296;6.806;2022-12-18T03:08:52;13.27;;;11.35;;
11018;SDS011;5563;52.296;6.806;2022-12-18T03:11:58;12.68;;;11.02;;
11018;SDS011;5563;52.296;6.806;2022-12-18T03:15:13;12.10;;;10.25;;
11018;SDS011;5563;52.296;6.806;2022-12-18T03:18:16;12.70;;;11.30;;
11018;SDS011;5563;52.296;6.806;2022-12-18T03:21:07;11.80;;;10.57;;
11018;SDS011;5563;52.296;6.806;2022-12-18T03:24:03;12.43;;;10.88;;
11018;SDS011;5563;52.296;6.806;2022-12-18T03:27:09;12.77;;;10.57;;
11018;SDS011;5563;52.296;6.806;2022-12-18T03:30:04;12.38;;;10.35;;
11018;SDS011;5563;52.296;6.806;2022-12-18T03:33:17;11.05;;;9.60;;
11018;SDS011;5563;52.296;6.806;2022-12-18T03:36:10;12.15;;;10.27;;
11018;SDS011;5563;52.296;6.806;2022-12-18T03:39:04;12.10;;;10.40;;
11018;SDS011;5563;52.296;6.806;2022-12-18T03:42:07;13.10;;;10.88;;
11018;SDS011;5563;52.296;6.806;2022-12-18T03:45:23;11.68;;;10.05;;
11018;SDS011;5563;52.296;6.806;2022-12-18T03:54:26;11.43;;;9.75;;
11018;SDS011;5563;52.296;6.806;2022-12-18T03:57:21;12.15;;;10.32;;
11018;SDS011;5563;52.296;6.806;2022-12-18T04:00:19;11.43;;;9.65;;
11018;SDS011;5563;52.296;6.806;2022-12-18T04:03:07;10.60;;;9.25;;
11018;SDS011;5563;52.296;6.806;2022-12-18T04:06:03;11.10;;;9.90;;
11018;SDS011;5563;52.296;6.806;2022-12-18T04:08:52;11.10;;;9.68;;
11018;SDS011;5563;52.296;6.806;2022-12-18T04:11:46;10.10;;;9.10;;
11018;SDS011;5563;52.296;6.806;2022-12-18T04:14:33;11.30;;;10.07;;
11018;SDS011;5563;52.296;6.806;2022-12-18T04:17:28;11.25;;;9.77;;
11018;SDS011;5563;52.296;6.806;2022-12-18T04:20:15;10.27;;;9.23;;
11018;SDS011;5563;52.296;6.806;2022-12-18T04:23:09;10.23;;;9.10;;
11018;SDS011;5563;52.296;6.806;2022-12-18T04:25:55;10.75;;;9.65;;
11018;SDS011;5563;52.296;6.806;2022-12-18T04:28:49;10.65;;;9.10;;
11018;SDS011;5563;52.296;6.806;2022-12-18T04:31:42;10.93;;;9.50;;
11018;SDS011;5563;52.296;6.806;2022-12-18T04:34:35;11.00;;;9.90;;
11018;SDS011;5563;52.296;6.806;2022-12-18T04:37:28;9.55;;;8.55;;
11018;SDS011;5563;52.296;6.806;2022-12-18T04:40:21;10.30;;;9.20;;
11018;SDS011;5563;52.296;6.806;2022-12-18T04:43:07;10.88;;;9.48;;
11018;SDS011;5563;52.296;6.806;2022-12-18T04:46:04;9.95;;;8.95;;
11018;SDS011;5563;52.296;6.806;2022-12-18T04:49:00;10.60;;;8.82;;
11018;SDS011;5563;52.296;6.806;2022-12-18T04:51:46;10.38;;;9.27;;
11018;SDS011;5563;52.296;6.806;2022-12-18T04:54:40;10.00;;;8.90;;
11018;SDS011;5563;52.296;6.806;2022-12-18T04:57:27;9.30;;;8.35;;
11018;SDS011;5563;52.296;6.806;2022-12-18T05:00:21;10.75;;;9.15;;
11018;SDS011;5563;52.296;6.806;2022-12-18T05:03:08;9.57;;;8.57;;
11018;SDS011;5563;52.296;6.806;2022-12-18T05:06:02;10.25;;;9.15;;
11018;SDS011;5563;52.296;6.806;2022-12-18T05:08:50;9.20;;;8.07;;
11018;SDS011;5563;52.296;6.806;2022-12-18T05:11:44;9.35;;;8.35;;
11018;SDS011;5563;52.296;6.806;2022-12-18T05:14:31;10.35;;;9.23;;
11018;SDS011;5563;52.296;6.806;2022-12-18T05:17:25;8.98;;;8.07;;
11018;SDS011;5563;52.296;6.806;2022-12-18T05:20:12;9.93;;;8.82;;
11018;SDS011;5563;52.296;6.806;2022-12-18T05:23:06;9.07;;;8.18;;
11018;SDS011;5563;52.296;6.806;2022-12-18T05:26:05;10.18;;;8.88;;
11018;SDS011;5563;52.296;6.806;2022-12-18T05:29:07;9.15;;;8.10;;
11018;SDS011;5563;52.296;6.806;2022-12-18T05:32:01;9.18;;;8.27;;
11018;SDS011;5563;52.296;6.806;2022-12-18T05:34:47;8.52;;;7.72;;
11018;SDS011;5563;52.296;6.806;2022-12-18T05:37:41;8.80;;;7.90;;
11018;SDS011;5563;52.296;6.806;2022-12-18T05:40:29;8.93;;;8.02;;
11018;SDS011;5563;52.296;6.806;2022-12-18T05:43:24;8.73;;;7.82;;
11018;SDS011;5563;52.296;6.806;2022-12-18T05:46:13;9.82;;;8.73;;
11018;SDS011;5563;52.296;6.806;2022-12-18T05:49:08;9.40;;;7.63;;
11018;SDS011;5563;52.296;6.806;2022-12-18T05:51:55;8.55;;;7.75;;
11018;SDS011;5563;52.296;6.806;2022-12-18T05:54:49;9.15;;;8.02;;
11018;SDS011;5563;52.296;6.806;2022-12-18T05:57:35;9.00;;;7.47;;
11018;SDS011;5563;52.296;6.806;2022-12-18T06:00:29;8.43;;;7.60;;
11018;SDS011;5563;52.296;6.806;2022-12-18T06:03:16;8.82;;;7.85;;
11018;SDS011;5563;52.296;6.806;2022-12-18T06:06:24;8.27;;;7.43;;
11018;SDS011;5563;52.296;6.806;2022-12-18T06:09:19;9.52;;;8.52;;
11018;SDS011;5563;52.296;6.806;2022-12-18T06:12:06;8.55;;;7.55;;
11018;SDS011;5563;52.296;6.806;2022-12-18T06:15:00;8.63;;;7.47;;
11018;SDS011;5563;52.296;6.806;2022-12-18T06:17:47;8.80;;;7.90;;
11018;SDS011;5563;52.296;6.806;2022-12-18T06:20:40;8.40;;;7.43;;
11018;SDS011;5563;52.296;6.806;2022-12-18T06:23:28;8.13;;;7.32;;
11018;SDS011;5563;52.296;6.806;2022-12-18T06:26:21;8.25;;;7.45;;
11018;SDS011;5563;52.296;6.806;2022-12-18T06:29:15;8.23;;;7.43;;
11018;SDS011;5563;52.296;6.806;2022-12-18T06:32:08;7.97;;;7.18;;
11018;SDS011;5563;52.296;6.806;2022-12-18T06:34:55;7.82;;;7.13;;
11018;SDS011;5563;52.296;6.806;2022-12-18T06:37:48;7.68;;;6.97;;
11018;SDS011;5563;52.296;6.806;2022-12-18T06:40:41;7.85;;;7.10;;
11018;SDS011;5563;52.296;6.806;2022-12-18T06:43:34;7.93;;;7.13;;
11018;SDS011;5563;52.296;6.806;2022-12-18T06:46:27;7.10;;;6.40;;
11018;SDS011;5563;52.296;6.806;2022-12-18T06:49:21;7.45;;;6.65;;
11018;SDS011;5563;52.296;6.806;2022-12-18T06:52:16;7.50;;;6.80;;
11018;SDS011;5563;52.296;6.806;2022-12-18T06:55:04;7.90;;;7.10;;
11018;SDS011;5563;52.296;6.806;2022-12-18T06:57:58;7.32;;;6.57;;
11018;SDS011;5563;52.296;6.806;2022-12-18T07:00:51;6.90;;;6.20;;
11018;SDS011;5563;52.296;6.806;2022-12-18T07:03:45;7.38;;;6.68;;
11018;SDS011;5563;52.296;6.806;2022-12-18T07:06:32;7.10;;;6.40;;
11018;SDS011;5563;52.296;6.806;2022-12-18T07:09:25;7.00;;;6.13;;
11018;SDS011;5563;52.296;6.806;2022-12-18T07:12:18;6.63;;;6.03;;
11018;SDS011;5563;52.296;6.806;2022-12-18T07:15:11;8.00;;;6.38;;
11018;SDS011;5563;52.296;6.806;2022-12-18T07:17:58;6.82;;;6.13;;
11018;SDS011;5563;52.296;6.806;2022-12-18T07:20:51;6.95;;;6.25;;
11018;SDS011;5563;52.296;6.806;2022-12-18T07:23:38;6.45;;;5.85;;
11018;SDS011;5563;52.296;6.806;2022-12-18T07:26:38;6.05;;;5.45;;
11018;SDS011;5563;52.296;6.806;2022-12-18T07:29:32;6.78;;;5.95;;
11018;SDS011;5563;52.296;6.806;2022-12-18T07:32:25;6.47;;;5.88;;
11018;SDS011;5563;52.296;6.806;2022-12-18T07:35:18;6.18;;;5.55;;
11018;SDS011;5563;52.296;6.806;2022-12-18T07:38:10;6.72;;;6.03;;
11018;SDS011;5563;52.296;6.806;2022-12-18T07:41:05;7.03;;;5.90;;
11018;SDS011;5563;52.296;6.806;2022-12-18T07:43:39;7.00;;;6.25;;
11018;SDS011;5563;52.296;6.806;2022-12-18T07:46:34;6.55;;;5.95;;
11018;SDS011;5563;52.296;6.806;2022-12-18T07:49:22;6.90;;;6.00;;
11018;SDS011;5563;52.296;6.806;2022-12-18T07:52:15;8.25;;;5.82;;
11018;SDS011;5563;52.296;6.806;2022-12-18T07:55:11;6.10;;;5.32;;
11018;SDS011;5563;52.296;6.806;2022-12-18T07:58:05;8.55;;;5.90;;
11018;SDS011;5563;52.296;6.806;2022-12-18T08:00:52;6.82;;;6.13;;
11018;SDS011;5563;52.296;6.806;2022-12-18T08:03:46;6.78;;;5.82;;
11018;SDS011;5563;52.296;6.806;2022-12-18T08:06:39;7.00;;;6.00;;
11018;SDS011;5563;52.296;6.806;2022-12-18T08:09:33;8.15;;;6.10;;
11018;SDS011;5563;52.296;6.806;2022-12-18T08:12:20;6.78;;;6.18;;
11018;SDS011;5563;52.296;6.806;2022-12-18T08:15:14;7.72;;;6.07;;
11018;SDS011;5563;52.296;6.806;2022-12-18T08:18:01;8.02;;;6.00;;
11018;SDS011;5563;52.296;6.806;2022-12-18T08:21:19;6.85;;;5.95;;
11018;SDS011;5563;52.296;6.806;2022-12-18T08:24:23;9.57;;;6.10;;
11018;SDS011;5563;52.296;6.806;2022-12-18T08:27:16;7.70;;;6.05;;
11018;SDS011;5563;52.296;6.806;2022-12-18T08:30:16;8.18;;;5.65;;
11018;SDS011;5563;52.296;6.806;2022-12-18T08:33:10;7.45;;;6.03;;
11018;SDS011;5563;52.296;6.806;2022-12-18T08:36:06;6.28;;;5.30;;
11018;SDS011;5563;52.296;6.806;2022-12-18T08:39:02;8.77;;;5.50;;
11018;SDS011;5563;52.296;6.806;2022-12-18T08:41:58;6.20;;;5.60;;
11018;SDS011;5563;52.296;6.806;2022-12-18T08:45:04;7.63;;;5.50;;
11018;SDS011;5563;52.296;6.806;2022-12-18T08:47:58;5.70;;;5.18;;
11018;SDS011;5563;52.296;6.806;2022-12-18T08:50:53;8.70;;;5.40;;
11018;SDS011;5563;52.296;6.806;2022-12-18T08:53:52;5.68;;;5.10;;
11018;SDS011;5563;52.296;6.806;2022-12-18T08:56:39;5.88;;;5.38;;
11018;SDS011;5563;52.296;6.806;2022-12-18T08:59:33;8.30;;;5.50;;
11018;SDS011;5563;52.296;6.806;2022-12-18T09:02:26;5.53;;;5.03;;
11018;SDS011;5563;52.296;6.806;2022-12-18T09:05:13;5.88;;;5.28;;
11018;SDS011;5563;52.296;6.806;2022-12-18T09:08:07;5.68;;;5.10;;
11018;SDS011;5563;52.296;6.806;2022-12-18T09:10:54;6.18;;;5.30;;
11018;SDS011;5563;52.296;6.806;2022-12-18T09:13:48;5.60;;;4.97;;
11018;SDS011;5563;52.296;6.806;2022-12-18T09:16:35;6.70;;;5.20;;
11018;SDS011;5563;52.296;6.806;2022-12-18T09:19:29;5.88;;;5.28;;
11018;SDS011;5563;52.296;6.806;2022-12-18T09:22:23;4.78;;;4.38;;
11018;SDS011;5563;52.296;6.806;2022-12-18T09:25:10;5.50;;;4.50;;
11018;SDS011;5563;52.296;6.806;2022-12-18T09:28:14;7.40;;;5.07;;
11018;SDS011;5563;52.296;6.806;2022-12-18T09:31:12;5.55;;;4.53;;
11018;SDS011;5563;52.296;6.806;2022-12-18T09:34:00;7.18;;;4.53;;
11018;SDS011;5563;52.296;6.806;2022-12-18T09:36:53;6.80;;;4.75;;
11018;SDS011;5563;52.296;6.806;2022-12-18T09:39:46;6.97;;;4.90;;
11018;SDS011;5563;52.296;6.806;2022-12-18T09:42:39;5.13;;;4.63;;
11018;SDS011;5563;52.296;6.806;2022-12-18T09:45:26;6.05;;;4.85;;
11018;SDS011;5563;52.296;6.806;2022-12-18T09:48:23;4.97;;;4.47;;
11018;SDS011;5563;52.296;6.806;2022-12-18T09:51:23;4.75;;;4.30;;
11018;SDS011;5563;52.296;6.806;2022-12-18T09:54:33;6.07;;;4.13;;
11018;SDS011;5563;52.296;6.806;2022-12-18T09:57:32;4.55;;;4.15;;
11018;SDS011;5563;52.296;6.806;2022-12-18T10:00:24;4.30;;;3.90;;
11018;SDS011;5563;52.296;6.806;2022-12-18T10:03:18;4.38;;;3.95;;
11018;SDS011;5563;52.296;6.806;2022-12-18T10:06:11;7.63;;;4.60;;
11018;SDS011;5563;52.296;6.806;2022-12-18T10:09:24;4.93;;;4.43;;
11018;SDS011;5563;52.296;6.806;2022-12-18T10:12:30;4.63;;;4.18;;
11018;SDS011;5563;52.296;6.806;2022-12-18T10:16:12;7.15;;;4.05;;
11018;SDS011;5563;52.296;6.806;2022-12-18T10:22:30;4.30;;;3.90;;
11018;SDS011;5563;52.296;6.806;2022-12-18T10:25:32;4.72;;;4.32;;
11018;SDS011;5563;52.296;6.806;2022-12-18T10:28:38;5.93;;;4.53;;
11018;SDS011;5563;52.296;6.806;2022-12-18T10:31:33;4.13;;;3.72;;
11018;SDS011;5563;52.296;6.806;2022-12-18T10:34:20;5.93;;;3.90;;
11018;SDS011;5563;52.296;6.806;2022-12-18T10:37:15;4.63;;;4.15;;
11018;SDS011;5563;52.296;6.806;2022-12-18T10:43:12;4.45;;;4.05;;
11018;SDS011;5563;52.296;6.806;2022-12-18T10:49:26;4.63;;;3.92;;
11018;SDS011;5563;52.296;6.806;2022-12-18T10:52:21;5.45;;;3.70;;
11018;SDS011;5563;52.296;6.806;2022-12-18T10:55:12;4.03;;;3.63;;
11018;SDS011;5563;52.296;6.806;2022-12-18T10:58:26;4.13;;;3.80;;
11018;SDS011;5563;52.296;6.806;2022-12-18T11:01:26;3.92;;;3.58;;
11018;SDS011;5563;52.296;6.806;2022-12-18T11:04:21;4.22;;;3.20;;
11018;SDS011;5563;52.296;6.806;2022-12-18T11:07:16;3.70;;;3.40;;
11018;SDS011;5563;52.296;6.806;2022-12-18T11:10:03;4.28;;;3.33;;
11018;SDS011;5563;52.296;6.806;2022-12-18T11:13:08;6.13;;;3.83;;
11018;SDS011;5563;52.296;6.806;2022-12-18T11:15:57;5.05;;;3.30;;
11018;SDS011;5563;52.296;6.806;2022-12-18T11:18:52;6.22;;;3.60;;
11018;SDS011;5563;52.296;6.806;2022-12-18T11:21:40;3.72;;;3.15;;
11018;SDS011;5563;52.296;6.806;2022-12-18T11:24:35;4.28;;;3.75;;
11018;SDS011;5563;52.296;6.806;2022-12-18T11:27:48;4.88;;;3.45;;
11018;SDS011;5563;52.296;6.806;2022-12-18T11:31:17;4.00;;;3.38;;
11018;SDS011;5563;52.296;6.806;2022-12-18T11:37:16;3.63;;;3.33;;
11018;SDS011;5563;52.296;6.806;2022-12-18T11:40:16;4.30;;;3.30;;
11018;SDS011;5563;52.296;6.806;2022-12-18T11:43:10;4.13;;;3.30;;
11018;SDS011;5563;52.296;6.806;2022-12-18T11:46:36;4.68;;;3.45;;
11018;SDS011;5563;52.296;6.806;2022-12-18T11:49:37;3.80;;;3.13;;
11018;SDS011;5563;52.296;6.806;2022-12-18T11:52:32;3.80;;;3.42;;
11018;SDS011;5563;52.296;6.806;2022-12-18T11:58:50;5.07;;;3.13;;
11018;SDS011;5563;52.296;6.806;2022-12-18T12:02:02;3.42;;;3.13;;
11018;SDS011;5563;52.296;6.806;2022-12-18T12:08:23;3.42;;;3.13;;
11018;SDS011;5563;52.296;6.806;2022-12-18T12:14:47;3.50;;;3.20;;
11018;SDS011;5563;52.296;6.806;2022-12-18T12:17:56;3.35;;;3.05;;
11018;SDS011;5563;52.296;6.806;2022-12-18T12:21:05;3.20;;;2.90;;
11018;SDS011;5563;52.296;6.806;2022-12-18T12:39:40;2.97;;;2.70;;
11018;SDS011;5563;52.296;6.806;2022-12-18T12:42:38;3.50;;;3.20;;
11018;SDS011;5563;52.296;6.806;2022-12-18T12:45:57;2.97;;;2.65;;
11018;SDS011;5563;52.296;6.806;2022-12-18T12:49:14;3.28;;;2.78;;
11018;SDS011;5563;52.296;6.806;2022-12-18T12:52:11;3.50;;;2.95;;
11018;SDS011;5563;52.296;6.806;2022-12-18T12:55:23;4.20;;;3.00;;
11018;SDS011;5563;52.296;6.806;2022-12-18T13:01:58;3.08;;;2.78;;
11018;SDS011;5563;52.296;6.806;2022-12-18T13:08:51;3.15;;;2.85;;
11018;SDS011;5563;52.296;6.806;2022-12-18T13:11:43;3.03;;;2.72;;
11018;SDS011;5563;52.296;6.806;2022-12-18T13:15:11;3.28;;;2.97;;
11018;SDS011;5563;52.296;6.806;2022-12-18T13:21:18;3.15;;;2.90;;
11018;SDS011;5563;52.296;6.806;2022-12-18T13:24:24;3.40;;;2.83;;
11018;SDS011;5563;52.296;6.806;2022-12-18T13:30:46;3.17;;;2.88;;
11018;SDS011;5563;52.296;6.806;2022-12-18T13:33:46;3.20;;;2.53;;
11018;SDS011;5563;52.296;6.806;2022-12-18T13:43:35;2.80;;;2.50;;
11018;SDS011;5563;52.296;6.806;2022-12-18T13:46:28;3.13;;;2.83;;
11018;SDS011;5563;52.296;6.806;2022-12-18T13:52:35;3.03;;;2.80;;
11018;SDS011;5563;52.296;6.806;2022-12-18T13:55:32;3.13;;;2.85;;
11018;SDS011;5563;52.296;6.806;2022-12-18T13:58:20;2.80;;;2.60;;
11018;SDS011;5563;52.296;6.806;2022-12-18T14:01:23;2.85;;;2.63;;
11018;SDS011;5563;52.296;6.806;2022-12-18T14:04:11;2.75;;;2.55;;
11018;SDS011;5563;52.296;6.806;2022-12-18T14:07:11;2.83;;;2.63;;
11018;SDS011;5563;52.296;6.806;2022-12-18T14:10:11;2.97;;;2.78;;
11018;SDS011;5563;52.296;6.806;2022-12-18T14:13:26;2.80;;;2.60;;
11018;SDS011;5563;52.296;6.806;2022-12-18T14:16:22;2.90;;;2.50;;
11018;SDS011;5563;52.296;6.806;2022-12-18T14:19:24;2.35;;;2.17;;
11018;SDS011;5563;52.296;6.806;2022-12-18T14:22:19;3.65;;;2.65;;
11018;SDS011;5563;52.296;6.806;2022-12-18T14:28:22;2.58;;;2.38;;
11018;SDS011;5563;52.296;6.806;2022-12-18T14:31:26;2.25;;;2.15;;
11018;SDS011;5563;52.296;6.806;2022-12-18T14:34:22;3.00;;;2.70;;
11018;SDS011;5563;52.296;6.806;2022-12-18T14:37:23;2.88;;;2.67;;
11018;SDS011;5563;52.296;6.806;2022-12-18T14:40:11;2.60;;;2.40;;
11018;SDS011;5563;52.296;6.806;2022-12-18T14:43:09;2.72;;;2.53;;
11018;SDS011;5563;52.296;6.806;2022-12-18T14:46:04;2.65;;;2.45;;
11018;SDS011;5563;52.296;6.806;2022-12-18T14:49:23;2.78;;;2.58;;
11018;SDS011;5563;52.296;6.806;2022-12-18T14:52:25;2.80;;;2.60;;
11018;SDS011;5563;52.296;6.806;2022-12-18T14:55:19;2.58;;;2.38;;
11018;SDS011;5563;52.296;6.806;2022-12-18T14:58:15;2.63;;;2.42;;
11018;SDS011;5563;52.296;6.806;2022-12-18T15:01:04;2.53;;;2.33;;
11018;SDS011;5563;52.296;6.806;2022-12-18T15:03:57;2.97;;;2.67;;
11018;SDS011;5563;52.296;6.806;2022-12-18T15:07:02;2.70;;;2.33;;
11018;SDS011;5563;52.296;6.806;2022-12-18T15:15:58;2.58;;;2.38;;
11018;SDS011;5563;52.296;6.806;2022-12-18T15:18:56;2.75;;;2.55;;
11018;SDS011;5563;52.296;6.806;2022-12-18T15:21:43;3.00;;;2.70;;
11018;SDS011;5563;52.296;6.806;2022-12-18T15:24:36;2.88;;;2.67;;
11018;SDS011;5563;52.296;6.806;2022-12-18T15:27:36;2.50;;;2.30;;
11018;SDS011;5563;52.296;6.806;2022-12-18T15:30:30;2.63;;;2.42;;
11018;SDS011;5563;52.296;6.806;2022-12-18T15:33:24;2.45;;;2.25;;
11018;SDS011;5563;52.296;6.806;2022-12-18T15:36:20;2.42;;;2.22;;
11018;SDS011;5563;52.296;6.806;2022-12-18T15:39:15;2.70;;;2.50;;
11018;SDS011;5563;52.296;6.806;2022-12-18T15:42:09;2.88;;;2.40;;
11018;SDS011;5563;52.296;6.806;2022-12-18T15:45:29;3.83;;;2.60;;
11018;SDS011;5563;52.296;6.806;2022-12-18T15:48:23;4.70;;;2.58;;
11018;SDS011;5563;52.296;6.806;2022-12-18T15:51:17;3.70;;;2.30;;
11018;SDS011;5563;52.296;6.806;2022-12-18T15:54:11;3.40;;;2.42;;
11018;SDS011;5563;52.296;6.806;2022-12-18T15:57:10;2.70;;;2.50;;
11018;SDS011;5563;52.296;6.806;2022-12-18T16:00:11;2.92;;;2.35;;
11018;SDS011;5563;52.296;6.806;2022-12-18T16:03:05;3.08;;;2.58;;
11018;SDS011;5563;52.296;6.806;2022-12-18T16:05:59;2.60;;;2.40;;
11018;SDS011;5563;52.296;6.806;2022-12-18T16:09:01;2.33;;;2.13;;
11018;SDS011;5563;52.296;6.806;2022-12-18T16:11:48;2.75;;;2.55;;
11018;SDS011;5563;52.296;6.806;2022-12-18T16:14:42;2.75;;;2.53;;
11018;SDS011;5563;52.296;6.806;2022-12-18T16:17:29;3.83;;;2.55;;
11018;SDS011;5563;52.296;6.806;2022-12-18T16:20:22;2.65;;;2.45;;
11018;SDS011;5563;52.296;6.806;2022-12-18T16:23:15;2.60;;;2.38;;
11018;SDS011;5563;52.296;6.806;2022-12-18T16:26:08;2.88;;;2.53;;
11018;SDS011;5563;52.296;6.806;2022-12-18T16:29:01;2.72;;;2.00;;
11018;SDS011;5563;52.296;6.806;2022-12-18T16:31:48;4.28;;;2.20;;
11018;SDS011;5563;52.296;6.806;2022-12-18T16:34:41;2.55;;;2.35;;
11018;SDS011;5563;52.296;6.806;2022-12-18T16:37:35;2.40;;;2.20;;
11018;SDS011;5563;52.296;6.806;2022-12-18T16:40:28;2.40;;;2.20;;
11018;SDS011;5563;52.296;6.806;2022-12-18T16:43:18;2.30;;;2.10;;
11018;SDS011;5563;52.296;6.806;2022-12-18T16:46:11;2.90;;;2.30;;
11018;SDS011;5563;52.296;6.806;2022-12-18T16:48:59;2.50;;;2.30;;
11018;SDS011;5563;52.296;6.806;2022-12-18T16:51:53;2.53;;;2.30;;
11018;SDS011;5563;52.296;6.806;2022-12-18T16:54:47;2.30;;;2.10;;
11018;SDS011;5563;52.296;6.806;2022-12-18T16:57:41;2.33;;;2.13;;
11018;SDS011;5563;52.296;6.806;2022-12-18T17:00:28;2.10;;;1.98;;
11018;SDS011;5563;52.296;6.806;2022-12-18T17:03:21;2.60;;;2.40;;
11018;SDS011;5563;52.296;6.806;2022-12-18T17:06:14;2.58;;;2.38;;
11018;SDS011;5563;52.296;6.806;2022-12-18T17:09:03;2.80;;;2.22;;
11018;SDS011;5563;52.296;6.806;2022-12-18T17:11:59;2.90;;;2.60;;
11018;SDS011;5563;52.296;6.806;2022-12-18T17:14:52;3.00;;;2.70;;
11018;SDS011;5563;52.296;6.806;2022-12-18T17:17:46;2.55;;;2.35;;
11018;SDS011;5563;52.296;6.806;2022-12-18T17:20:33;2.90;;;2.00;;
11018;SDS011;5563;52.296;6.806;2022-12-18T17:23:27;2.33;;;2.13;;
11018;SDS011;5563;52.296;6.806;2022-12-18T17:26:21;2.35;;;2.20;;
11018;SDS011;5563;52.296;6.806;2022-12-18T17:29:21;3.15;;;2.25;;
11018;SDS011;5563;52.296;6.806;2022-12-18T17:32:15;2.53;;;2.28;;
11018;SDS011;5563;52.296;6.806;2022-12-18T17:35:09;2.40;;;2.20;;
11018;SDS011;5563;52.296;6.806;2022-12-18T17:37:56;2.28;;;2.08;;
11018;SDS011;5563;52.296;6.806;2022-12-18T17:40:50;3.53;;;2.47;;
11018;SDS011;5563;52.296;6.806;2022-12-18T17:43:39;3.50;;;2.60;;
11018;SDS011;5563;52.296;6.806;2022-12-18T17:46:37;3.75;;;2.28;;
11018;SDS011;5563;52.296;6.806;2022-12-18T17:49:24;2.42;;;2.22;;
11018;SDS011;5563;52.296;6.806;2022-12-18T17:52:18;2.95;;;2.10;;
11018;SDS011;5563;52.296;6.806;2022-12-18T17:55:11;2.67;;;2.22;;
11018;SDS011;5563;52.296;6.806;2022-12-18T17:57:58;2.30;;;2.10;;
11018;SDS011;5563;52.296;6.806;2022-12-18T18:00:51;3.30;;;2.50;;
11018;SDS011;5563;52.296;6.806;2022-12-18T18:03:44;25.00;;;6.40;;
11018;SDS011;5563;52.296;6.806;2022-12-18T18:06:39;17.60;;;5.85;;
11018;SDS011;5563;52.296;6.806;2022-12-18T18:09:33;13.63;;;5.57;;
11018;SDS011;5563;52.296;6.806;2022-12-18T18:12:26;11.85;;;4.85;;
11018;SDS011;5563;52.296;6.806;2022-12-18T18:15:38;15.30;;;6.03;;
11018;SDS011;5563;52.296;6.806;2022-12-18T18:18:31;14.68;;;5.55;;
11018;SDS011;5563;52.296;6.806;2022-12-18T18:21:18;13.95;;;5.55;;
11018;SDS011;5563;52.296;6.806;2022-12-18T18:24:13;18.92;;;6.03;;
11018;SDS011;5563;52.296;6.806;2022-12-18T18:27:09;16.70;;;6.30;;
11018;SDS011;5563;52.296;6.806;2022-12-18T18:30:09;15.40;;;4.93;;
11018;SDS011;5563;52.296;6.806;2022-12-18T18:33:05;14.80;;;5.63;;
11018;SDS011;5563;52.296;6.806;2022-12-18T18:35:59;12.63;;;5.28;;
11018;SDS011;5563;52.296;6.806;2022-12-18T18:38:46;6.97;;;4.53;;
11018;SDS011;5563;52.296;6.806;2022-12-18T18:41:39;8.05;;;4.30;;
11018;SDS011;5563;52.296;6.806;2022-12-18T18:44:30;9.85;;;4.47;;
11018;SDS011;5563;52.296;6.806;2022-12-18T18:47:27;9.73;;;4.72;;
11018;SDS011;5563;52.296;6.806;2022-12-18T18:50:22;12.98;;;4.53;;
11018;SDS011;5563;52.296;6.806;2022-12-18T18:53:15;10.00;;;4.65;;
11018;SDS011;5563;52.296;6.806;2022-12-18T18:56:10;9.43;;;4.22;;
11018;SDS011;5563;52.296;6.806;2022-12-18T18:59:19;7.20;;;3.97;;
11018;SDS011;5563;52.296;6.806;2022-12-18T19:02:17;8.20;;;4.18;;
11018;SDS011;5563;52.296;6.806;2022-12-18T19:05:04;10.90;;;4.38;;
11018;SDS011;5563;52.296;6.806;2022-12-18T19:07:59;10.32;;;4.47;;
11018;SDS011;5563;52.296;6.806;2022-12-18T19:10:46;9.20;;;4.07;;
11018;SDS011;5563;52.296;6.806;2022-12-18T19:13:43;6.20;;;4.10;;
11018;SDS011;5563;52.296;6.806;2022-12-18T19:16:30;10.25;;;4.25;;
11018;SDS011;5563;52.296;6.806;2022-12-18T19:19:25;7.43;;;4.30;;